Time;durP1;ratioP1;P1;durP2;ratioP2;P2;SDS_P1;SDS_P2;PMS_P1;PMS_P2;Temp;Humidity;BMP_temperature;BMP_pressure;BME280_temperature;BME280_humidity;BME280_pressure;Samples;Min_cycle;Max_cycle;Signal;HPM_P1;HPM_P2
2022/07/11 00:08:41;;;;;;;0.20;0.10;;;25.30;99.90;;;;;;21345020;27;20252;-70
2022/07/11 00:18:46;;;;;;;0.20;0.00;;;25.10;99.90;;;;;;21343527;27;20222;-70
2022/07/11 00:28:50;;;;;;;0.20;0.00;;;25.50;99.90;;;;;;21342888;27;20222;-70
2022/07/11 00:38:55;;;;;;;0.20;0.00;;;25.80;99.90;;;;;;21341992;27;20220;-69
2022/07/11 00:49:01;;;;;;;0.20;0.00;;;26.30;99.90;;;;;;21322946;27;20282;-71
2022/07/11 00:59:06;;;;;;;0.20;0.00;;;26.90;99.90;;;;;;21340729;27;20240;-69
2022/07/11 01:09:10;;;;;;;0.20;0.10;;;26.90;99.90;;;;;;21339073;27;20214;-70
2022/07/11 01:19:15;;;;;;;0.20;0.00;;;26.80;99.90;;;;;;21339104;27;20231;-70
2022/07/11 01:29:20;;;;;;;0.20;0.00;;;27.00;99.90;;;;;;21338525;27;20227;-70
2022/07/11 01:39:24;;;;;;;0.20;0.00;;;26.80;99.90;;;;;;21337998;27;20191;-71
2022/07/11 01:49:29;;;;;;;0.20;0.00;;;26.90;99.90;;;;;;21319389;28;20230;-70
2022/07/11 01:59:33;;;;;;;0.20;0.00;;;26.60;99.90;;;;;;21336907;28;20228;-70
2022/07/11 02:09:39;;;;;;;0.20;0.03;;;26.50;99.90;;;;;;21336739;28;20248;-70
2022/07/11 02:19:42;;;;;;;0.20;0.00;;;26.70;99.90;;;;;;21347603;27;20240;-70
2022/07/11 02:29:48;;;;;;;0.20;0.00;;;26.50;99.90;;;;;;21334885;27;20236;-69
2022/07/11 02:39:52;;;;;;;0.20;0.00;;;26.10;99.90;;;;;;21351805;27;20216;-69
2022/07/11 02:49:57;;;;;;;0.20;0.10;;;26.00;99.90;;;;;;21333394;27;20218;-69
2022/07/11 03:00:02;;;;;;;0.20;0.10;;;25.60;99.90;;;;;;21350266;27;20220;-70
2022/07/11 03:10:07;;;;;;;0.20;0.00;;;25.30;99.90;;;;;;21349446;27;20252;-70
2022/07/11 03:20:12;;;;;;;0.20;0.00;;;24.90;99.90;;;;;;21330469;27;20248;-70
2022/07/11 03:30:17;;;;;;;0.20;0.00;;;24.70;99.90;;;;;;21329624;27;20248;-71
2022/07/11 03:40:22;;;;;;;0.20;0.05;;;24.30;99.90;;;;;;21347361;27;20194;-69
2022/07/11 03:50:27;;;;;;;0.20;0.00;;;24.50;99.90;;;;;;21346571;27;20280;-69
2022/07/11 04:00:31;;;;;;;0.20;0.00;;;24.40;99.90;;;;;;21345554;27;20225;-69
2022/07/11 04:10:36;;;;;;;0.20;0.05;;;24.20;99.90;;;;;;21343667;27;20233;-70
2022/07/11 04:20:40;;;;;;;0.20;0.00;;;23.70;99.90;;;;;;21343370;27;20210;-71
2022/07/11 04:30:45;;;;;;;0.20;0.00;;;24.00;99.90;;;;;;21324653;27;20218;-71
2022/07/11 04:40:49;;;;;;;0.20;0.00;;;24.30;99.90;;;;;;21340751;27;20198;-70
2022/07/11 04:50:55;;;;;;;0.20;0.00;;;24.30;99.90;;;;;;21322324;27;20244;-69
2022/07/11 05:00:59;;;;;;;0.20;0.10;;;24.40;99.90;;;;;;21321369;27;20202;-70
2022/07/11 05:11:05;;;;;;;0.20;0.10;;;24.20;99.90;;;;;;21338486;27;20225;-70
2022/07/11 05:21:09;;;;;;;0.20;0.00;;;24.40;99.90;;;;;;21337544;27;20238;-69
2022/07/11 05:31:14;;;;;;;0.20;0.00;;;24.90;99.90;;;;;;21336881;27;20222;-70
2022/07/11 05:41:18;;;;;;;0.20;0.00;;;24.80;99.90;;;;;;21335084;27;20198;-70
2022/07/11 05:51:23;;;;;;;0.20;0.10;;;25.10;99.90;;;;;;21317144;27;20222;-70
2022/07/11 06:01:27;;;;;;;0.20;0.00;;;25.40;99.90;;;;;;21315870;28;20223;-71
2022/07/11 06:11:40;;;;;;;0.20;0.00;;;25.90;99.90;;;;;;21332496;28;20225;-70
2022/07/11 06:21:43;;;;;;;0.20;0.00;;;26.40;99.90;;;;;;21333116;27;20229;-69
2022/07/11 06:31:49;;;;;;;0.20;0.00;;;26.90;99.90;;;;;;21312542;28;20313;-70
2022/07/11 06:41:53;;;;;;;0.20;0.00;;;26.50;99.90;;;;;;21314292;28;20195;-69
2022/07/11 06:51:58;;;;;;;0.20;0.00;;;26.60;99.90;;;;;;21294341;28;20223;-69
2022/07/11 07:02:02;;;;;;;0.20;0.00;;;26.60;99.90;;;;;;21315918;27;20187;-69
2022/07/11 07:12:08;;;;;;;0.20;0.00;;;26.60;99.90;;;;;;21344189;27;20222;-69
2022/07/11 07:22:14;;;;;;;0.20;0.10;;;27.00;99.90;;;;;;21343288;27;20230;-69
2022/07/11 07:32:19;;;;;;;0.20;0.00;;;27.80;99.90;;;;;;21343134;27;20255;-68
2022/07/11 07:42:23;;;;;;;0.20;0.00;;;28.20;99.90;;;;;;21324054;27;20210;-67
2022/07/11 07:52:28;;;;;;;0.20;0.00;;;28.30;99.90;;;;;;21341116;27;20233;-67
2022/07/11 08:02:32;;;;;;;0.20;0.00;;;28.40;99.90;;;;;;21340635;27;20194;-68
2022/07/11 08:12:37;;;;;;;0.20;0.00;;;28.50;99.90;;;;;;21319145;27;20218;-68
2022/07/11 08:22:41;;;;;;;0.20;0.00;;;28.50;99.90;;;;;;21320198;27;20226;-69
2022/07/11 08:32:47;;;;;;;0.20;0.00;;;28.40;99.90;;;;;;21318432;27;20233;-67
2022/07/11 08:42:51;;;;;;;0.20;0.00;;;28.20;99.90;;;;;;21325362;27;20259;-68
2022/07/11 08:52:59;;;;;;;0.20;0.00;;;28.00;99.90;;;;;;21332722;27;20226;-68
2022/07/11 09:03:05;;;;;;;0.20;0.00;;;27.90;99.90;;;;;;21334977;27;20199;-67
2022/07/11 09:13:11;;;;;;;0.20;0.00;;;28.10;99.90;;;;;;21316286;27;20229;-69
2022/07/11 09:33:59;;;;;;;0.20;0.00;;;28.00;99.90;;;;;;21332893;27;20237;-68
2022/07/11 09:44:17;;;;;;;0.20;0.00;;;27.90;99.90;;;;;;21332285;27;20187;-69
2022/07/11 09:54:22;;;;;;;0.20;0.00;;;28.30;99.90;;;;;;21331212;28;20233;-69
2022/07/11 10:04:26;;;;;;;0.20;0.00;;;28.30;99.90;;;;;;21314063;28;20198;-67
2022/07/11 10:14:32;;;;;;;0.20;0.00;;;28.40;99.90;;;;;;21332194;28;20240;-69
2022/07/11 10:24:44;;;;;;;0.20;0.00;;;28.50;99.90;;;;;;21331095;28;20329;-69
2022/07/11 10:35:07;;;;;;;0.20;0.10;;;29.00;99.90;;;;;;21332427;27;20247;-67
2022/07/11 10:45:12;;;;;;;0.20;0.00;;;28.90;99.90;;;;;;21347268;27;20191;-69
2022/07/11 10:55:35;;;;;;;0.20;0.00;;;28.90;99.90;;;;;;21346849;27;20229;-68
2022/07/11 11:05:43;;;;;;;0.20;0.00;;;29.10;99.90;;;;;;21344610;27;20195;-68
2022/07/11 11:15:51;;;;;;;0.20;0.00;;;30.00;99.90;;;;;;21344796;27;20218;-68
2022/07/11 11:25:56;;;;;;;0.20;0.00;;;29.50;99.90;;;;;;21342124;27;20241;-67
2022/07/11 11:36:03;;;;;;;0.20;0.00;;;30.60;99.90;;;;;;21343173;27;20255;-69
2022/07/11 11:46:07;;;;;;;0.20;0.00;;;30.80;99.90;;;;;;21336518;27;20325;-68
2022/07/11 11:56:17;;;;;;;0.20;0.10;;;31.10;99.90;;;;;;21334334;27;20238;-68
2022/07/11 12:06:24;;;;;;;0.20;0.10;;;31.20;99.90;;;;;;21337376;27;20193;-68
2022/07/11 12:16:42;;;;;;;0.20;0.00;;;32.20;99.90;;;;;;21322123;27;20236;-67
2022/07/11 12:26:55;;;;;;;0.20;0.00;;;31.80;99.90;;;;;;21335003;27;20194;-68
2022/07/11 12:37:05;;;;;;;0.20;0.00;;;32.90;99.90;;;;;;21334602;27;20223;-68
2022/07/11 12:47:09;;;;;;;0.20;0.00;;;32.40;99.90;;;;;;21337117;27;20194;-68
2022/07/11 12:57:21;;;;;;;0.20;0.00;;;32.50;99.90;;;;;;21324048;27;20218;-67
2022/07/11 13:17:54;;;;;;;0.20;0.00;;;33.60;99.90;;;;;;21305881;27;20225;-68
2022/07/11 13:27:59;;;;;;;0.20;0.08;;;33.60;99.90;;;;;;21306907;27;20557;-68
2022/07/11 13:38:04;;;;;;;0.20;0.00;;;33.30;99.90;;;;;;21305875;27;20242;-68
2022/07/11 13:48:08;;;;;;;0.20;0.00;;;33.80;99.90;;;;;;21323872;27;20220;-67
2022/07/11 14:08:33;;;;;;;0.20;0.00;;;33.60;99.90;;;;;;21302497;27;20200;-67
2022/07/11 14:18:38;;;;;;;0.20;0.00;;;33.40;99.90;;;;;;21320358;27;20226;-69
2022/07/11 14:28:42;;;;;;;0.20;0.00;;;33.00;99.90;;;;;;21339599;27;20198;-67
2022/07/11 14:38:48;;;;;;;0.20;0.00;;;32.50;99.90;;;;;;21338767;27;20218;-68
2022/07/11 14:48:52;;;;;;;0.20;0.00;;;33.10;99.90;;;;;;21289924;27;20191;-67
2022/07/11 14:58:57;;;;;;;0.20;0.00;;;33.90;99.90;;;;;;21250638;28;20233;-66
2022/07/11 15:19:24;;;;;;;0.20;0.00;;;32.90;99.90;;;;;;21244098;28;20240;-68
2022/07/11 15:29:27;;;;;;;0.20;0.00;;;33.30;99.90;;;;;;21204133;28;20183;-68
2022/07/11 15:39:33;;;;;;;0.20;0.00;;;32.80;99.90;;;;;;21225742;28;20222;-67
2022/07/11 15:49:37;;;;;;;0.20;0.00;;;32.40;99.90;;;;;;21223062;28;20188;-68
2022/07/11 15:59:42;;;;;;;0.20;0.00;;;33.30;99.90;;;;;;21241961;28;20235;-67
2022/07/11 16:09:46;;;;;;;0.20;0.00;;;33.20;99.90;;;;;;21250346;28;20187;-66
2022/07/11 16:19:51;;;;;;;0.20;0.00;;;32.30;99.90;;;;;;21259988;27;20223;-68
2022/07/11 16:29:55;;;;;;;0.20;0.00;;;31.50;99.90;;;;;;21325960;27;20292;-67
2022/07/11 16:50:36;;;;;;;0.20;0.00;;;30.10;99.90;;;;;;21016098;28;20197;-68
2022/07/11 17:00:45;;;;;;;0.20;0.00;;;29.70;99.90;;;;;;21212063;28;20339;-68
2022/07/11 20:01:05;;;;;;;0.20;0.00;;;26.20;99.90;;;;;;26063859;22;1879584;-69
2022/07/11 20:11:09;;;;;;;0.20;0.00;;;26.10;99.90;;;;;;25693357;23;20238;-68
2022/07/11 20:21:15;;;;;;;0.20;0.10;;;25.80;99.90;;;;;;25692531;23;20170;-69
2022/07/11 20:31:19;;;;;;;0.20;0.00;;;25.80;99.90;;;;;;25693212;23;20205;-70
2022/07/11 20:41:25;;;;;;;0.20;0.10;;;25.60;99.90;;;;;;25692129;23;20170;-70
2022/07/11 20:51:29;;;;;;;0.20;0.00;;;25.50;99.90;;;;;;25667127;23;20201;-70
2022/07/11 21:01:34;;;;;;;0.20;0.10;;;25.20;99.90;;;;;;25665411;23;20253;-70
2022/07/11 21:11:40;;;;;;;0.20;0.00;;;25.40;99.90;;;;;;25665679;23;20162;-71
2022/07/11 21:21:46;;;;;;;0.20;0.00;;;25.10;99.90;;;;;;25692298;23;20178;-70
2022/07/11 21:31:50;;;;;;;0.20;0.00;;;24.90;99.90;;;;;;25692259;23;20154;-70
2022/07/11 21:41:55;;;;;;;0.20;0.00;;;24.80;99.90;;;;;;25692425;23;20190;-69
2022/07/11 21:51:59;;;;;;;0.20;0.00;;;24.70;99.90;;;;;;25694965;23;20178;-72
2022/07/11 22:02:04;;;;;;;0.20;0.00;;;24.70;99.90;;;;;;25676575;23;20206;-72
2022/07/11 22:12:09;;;;;;;0.20;0.00;;;24.20;99.90;;;;;;25703420;23;20170;-72
2022/07/11 22:22:14;;;;;;;0.20;0.10;;;24.30;99.90;;;;;;25702805;23;20181;-72
2022/07/11 22:32:18;;;;;;;0.20;0.00;;;24.30;99.90;;;;;;25701010;23;20175;-72
2022/07/11 22:42:23;;;;;;;0.20;0.00;;;24.20;99.90;;;;;;25702533;23;20197;-70
2022/07/11 22:52:28;;;;;;;0.20;0.10;;;24.00;99.90;;;;;;25701066;23;20182;-69
2022/07/11 23:02:50;;;;;;;0.20;0.00;;;23.90;99.90;;;;;;25674497;23;20221;-69
2022/07/11 23:12:55;;;;;;;0.20;0.00;;;23.70;99.90;;;;;;25700912;23;20186;-70
2022/07/11 23:23:02;;;;;;;0.20;0.00;;;23.70;99.90;;;;;;25700761;23;20195;-70
2022/07/11 23:33:05;;;;;;;0.20;0.00;;;23.50;99.90;;;;;;25700188;23;20171;-69
2022/07/11 23:43:10;;;;;;;0.20;0.00;;;23.80;99.90;;;;;;25699933;23;20265;-70
2022/07/11 23:53:14;;;;;;;0.20;0.00;;;23.70;99.90;;;;;;25699787;23;20185;-70
